sensor_id;sensor_type;location;lat;lon;timestamp;pressure;altitude;pressure_sealevel;temperature;humidity
52105;BME280;38103;42.776;23.112;2023-12-28T00:01:22;95010.91;;;1.81;100.00
52105;BME280;38103;42.776;23.112;2023-12-28T00:03:48;94922.19;;;1.19;100.00
52105;BME280;38103;42.776;23.112;2023-12-28T00:06:13;95019.94;;;1.68;100.00
52105;BME280;38103;42.776;23.112;2023-12-28T00:08:39;95016.97;;;1.63;100.00
52105;BME280;38103;42.776;23.112;2023-12-28T00:11:05;95007.41;;;1.45;100.00
52105;BME280;38103;42.776;23.112;2023-12-28T00:13:30;95027.00;;;1.49;100.00
52105;BME280;38103;42.776;23.112;2023-12-28T00:15:56;95019.31;;;1.48;100.00
52105;BME280;38103;42.776;23.112;2023-12-28T00:18:21;95010.53;;;1.49;100.00
52105;BME280;38103;42.776;23.112;2023-12-28T00:20:46;95019.59;;;1.44;100.00
52105;BME280;38103;42.776;23.112;2023-12-28T00:23:12;95027.38;;;1.36;100.00
52105;BME280;38103;42.776;23.112;2023-12-28T00:25:37;95023.38;;;1.24;100.00
52105;BME280;38103;42.776;23.112;2023-12-28T00:28:03;95018.06;;;1.15;100.00
52105;BME280;38103;42.776;23.112;2023-12-28T00:30:28;95020.81;;;1.14;100.00
52105;BME280;38103;42.776;23.112;2023-12-28T00:32:53;95014.94;;;1.11;100.00
52105;BME280;38103;42.776;23.112;2023-12-28T00:35:19;95025.50;;;1.10;100.00
52105;BME280;38103;42.776;23.112;2023-12-28T00:37:45;95032.56;;;0.99;100.00
52105;BME280;38103;42.776;23.112;2023-12-28T00:40:10;95034.50;;;0.97;100.00
52105;BME280;38103;42.776;23.112;2023-12-28T00:42:36;95029.13;;;0.81;100.00
52105;BME280;38103;42.776;23.112;2023-12-28T00:45:01;95039.53;;;0.81;100.00
52105;BME280;38103;42.776;23.112;2023-12-28T00:47:27;95040.34;;;0.81;100.00
52105;BME280;38103;42.776;23.112;2023-12-28T00:49:53;94983.34;;;0.31;100.00
52105;BME280;38103;42.776;23.112;2023-12-28T00:52:18;94933.91;;;0.13;100.00
52105;BME280;38103;42.776;23.112;2023-12-28T00:54:44;95046.66;;;0.78;100.00
52105;BME280;38103;42.776;23.112;2023-12-28T00:57:09;95036.84;;;0.72;100.00
52105;BME280;38103;42.776;23.112;2023-12-28T00:59:34;95045.63;;;0.71;100.00
52105;BME280;38103;42.776;23.112;2023-12-28T01:02:00;95045.91;;;0.68;100.00
52105;BME280;38103;42.776;23.112;2023-12-28T01:04:25;95051.41;;;0.65;100.00
52105;BME280;38103;42.776;23.112;2023-12-28T01:06:51;95050.44;;;0.66;100.00
52105;BME280;38103;42.776;23.112;2023-12-28T01:09:17;95056.22;;;0.60;100.00
52105;BME280;38103;42.776;23.112;2023-12-28T01:11:42;95063.63;;;0.54;100.00
52105;BME280;38103;42.776;23.112;2023-12-28T01:14:08;95060.22;;;0.54;100.00
52105;BME280;38103;42.776;23.112;2023-12-28T01:16:33;95055.16;;;0.52;100.00
52105;BME280;38103;42.776;23.112;2023-12-28T01:18:59;95035.09;;;0.35;100.00
52105;BME280;38103;42.776;23.112;2023-12-28T01:21:24;95049.56;;;0.47;100.00
52105;BME280;38103;42.776;23.112;2023-12-28T01:23:50;95047.63;;;0.49;100.00
52105;BME280;38103;42.776;23.112;2023-12-28T01:26:16;95054.19;;;0.53;100.00
52105;BME280;38103;42.776;23.112;2023-12-28T01:28:42;95055.16;;;0.52;100.00
52105;BME280;38103;42.776;23.112;2023-12-28T01:31:08;95027.69;;;0.40;100.00
52105;BME280;38103;42.776;23.112;2023-12-28T01:33:33;95048.72;;;0.57;100.00
52105;BME280;38103;42.776;23.112;2023-12-28T01:35:59;95036.16;;;0.42;100.00
52105;BME280;38103;42.776;23.112;2023-12-28T01:38:24;95040.31;;;0.35;100.00
52105;BME280;38103;42.776;23.112;2023-12-28T01:40:50;95044.63;;;0.44;100.00
52105;BME280;38103;42.776;23.112;2023-12-28T01:43:15;95044.34;;;0.47;100.00
52105;BME280;38103;42.776;23.112;2023-12-28T01:45:40;95048.34;;;0.41;100.00
52105;BME280;38103;42.776;23.112;2023-12-28T01:48:06;95042.75;;;0.36;100.00
52105;BME280;38103;42.776;23.112;2023-12-28T01:50:32;95040.25;;;0.44;100.00
52105;BME280;38103;42.776;23.112;2023-12-28T01:52:58;95037.22;;;0.49;100.00
52105;BME280;38103;42.776;23.112;2023-12-28T01:55:26;95046.28;;;0.45;100.00
52105;BME280;38103;42.776;23.112;2023-12-28T01:57:52;95047.69;;;0.39;100.00
52105;BME280;38103;42.776;23.112;2023-12-28T02:00:21;95046.84;;;0.39;100.00
52105;BME280;38103;42.776;23.112;2023-12-28T02:02:47;95050.44;;;0.38;100.00
52105;BME280;38103;42.776;23.112;2023-12-28T02:05:13;95053.97;;;0.37;100.00
52105;BME280;38103;42.776;23.112;2023-12-28T02:07:39;95048.28;;;0.33;100.00
52105;BME280;38103;42.776;23.112;2023-12-28T02:10:05;95049.66;;;0.27;100.00
52105;BME280;38103;42.776;23.112;2023-12-28T02:12:31;95045.56;;;0.25;100.00
52105;BME280;38103;42.776;23.112;2023-12-28T02:14:57;95036.53;;;0.19;100.00
52105;BME280;38103;42.776;23.112;2023-12-28T02:17:37;95038.50;;;0.07;100.00
52105;BME280;38103;42.776;23.112;2023-12-28T02:20:06;95051.63;;;0.05;100.00
52105;BME280;38103;42.776;23.112;2023-12-28T02:22:33;95046.41;;;0.05;100.00
52105;BME280;38103;42.776;23.112;2023-12-28T02:25:06;95048.06;;;0.06;100.00
52105;BME280;38103;42.776;23.112;2023-12-28T02:27:38;95050.28;;;0.01;100.00
52105;BME280;38103;42.776;23.112;2023-12-28T02:30:06;95044.25;;;0.01;100.00
52105;BME280;38103;42.776;23.112;2023-12-28T02:32:42;95041.25;;;-0.05;100.00
52105;BME280;38103;42.776;23.112;2023-12-28T02:35:34;95041.69;;;-0.09;100.00
52105;BME280;38103;42.776;23.112;2023-12-28T02:38:06;95030.63;;;-0.21;100.00
52105;BME280;38103;42.776;23.112;2023-12-28T02:40:38;95039.94;;;-0.19;100.00
52105;BME280;38103;42.776;23.112;2023-12-28T02:43:05;95040.59;;;-0.17;100.00
52105;BME280;38103;42.776;23.112;2023-12-28T02:45:31;95043.19;;;-0.17;100.00
52105;BME280;38103;42.776;23.112;2023-12-28T02:47:56;95044.31;;;-0.19;100.00
52105;BME280;38103;42.776;23.112;2023-12-28T02:50:22;95035.84;;;-0.21;100.00
52105;BME280;38103;42.776;23.112;2023-12-28T02:52:47;95036.66;;;-0.21;100.00
52105;BME280;38103;42.776;23.112;2023-12-28T02:55:12;95039.66;;;-0.16;100.00
52105;BME280;38103;42.776;23.112;2023-12-28T02:57:38;95036.06;;;-0.15;100.00
52105;BME280;38103;42.776;23.112;2023-12-28T03:00:07;95035.81;;;-0.12;100.00
52105;BME280;38103;42.776;23.112;2023-12-28T03:02:37;95031.72;;;-0.14;100.00
52105;BME280;38103;42.776;23.112;2023-12-28T03:05:04;95033.34;;;-0.13;100.00
52105;BME280;38103;42.776;23.112;2023-12-28T03:07:31;95036.91;;;-0.14;100.00
52105;BME280;38103;42.776;23.112;2023-12-28T03:09:56;95004.38;;;-0.28;100.00
52105;BME280;38103;42.776;23.112;2023-12-28T03:12:21;95026.94;;;-0.19;100.00
52105;BME280;38103;42.776;23.112;2023-12-28T03:14:47;95023.09;;;-0.25;100.00
52105;BME280;38103;42.776;23.112;2023-12-28T03:17:12;95026.81;;;-0.27;100.00
52105;BME280;38103;42.776;23.112;2023-12-28T03:19:38;95023.53;;;-0.29;100.00
52105;BME280;38103;42.776;23.112;2023-12-28T03:22:03;95025.47;;;-0.31;100.00
52105;BME280;38103;42.776;23.112;2023-12-28T03:24:29;95016.97;;;-0.33;100.00
52105;BME280;38103;42.776;23.112;2023-12-28T03:26:54;95018.88;;;-0.36;100.00
52105;BME280;38103;42.776;23.112;2023-12-28T03:29:19;95026.81;;;-0.37;100.00
52105;BME280;38103;42.776;23.112;2023-12-28T03:31:45;95029.84;;;-0.42;100.00
52105;BME280;38103;42.776;23.112;2023-12-28T03:34:10;95029.84;;;-0.42;100.00
52105;BME280;38103;42.776;23.112;2023-12-28T03:36:35;95029.84;;;-0.42;100.00
52105;BME280;38103;42.776;23.112;2023-12-28T03:39:01;95024.91;;;-0.45;100.00
52105;BME280;38103;42.776;23.112;2023-12-28T03:41:27;95019.19;;;-0.59;100.00
52105;BME280;38103;42.776;23.112;2023-12-28T03:43:52;95028.63;;;-0.58;100.00
52105;BME280;38103;42.776;23.112;2023-12-28T03:46:17;95042.44;;;-0.67;100.00
52105;BME280;38103;42.776;23.112;2023-12-28T03:48:43;95049.00;;;-0.73;100.00
52105;BME280;38103;42.776;23.112;2023-12-28T03:51:13;95048.72;;;-0.80;100.00
52105;BME280;38103;42.776;23.112;2023-12-28T03:53:39;95034.53;;;-0.85;100.00
52105;BME280;38103;42.776;23.112;2023-12-28T03:56:04;95038.63;;;-0.83;100.00
52105;BME280;38103;42.776;23.112;2023-12-28T03:58:30;95036.44;;;-0.77;100.00
52105;BME280;38103;42.776;23.112;2023-12-28T04:00:55;95045.16;;;-0.79;100.00
52105;BME280;38103;42.776;23.112;2023-12-28T04:03:20;95050.38;;;-0.79;100.00
52105;BME280;38103;42.776;23.112;2023-12-28T04:05:46;95053.22;;;-0.72;100.00
52105;BME280;38103;42.776;23.112;2023-12-28T04:08:12;95051.19;;;-0.68;100.00
52105;BME280;38103;42.776;23.112;2023-12-28T04:10:37;95050.25;;;-0.67;100.00
52105;BME280;38103;42.776;23.112;2023-12-28T04:13:03;95050.91;;;-0.65;100.00
52105;BME280;38103;42.776;23.112;2023-12-28T04:15:29;95047.91;;;-0.70;100.00
52105;BME280;38103;42.776;23.112;2023-12-28T04:17:55;95051.44;;;-0.71;100.00
52105;BME280;38103;42.776;23.112;2023-12-28T04:20:20;95055.28;;;-0.75;100.00
52105;BME280;38103;42.776;23.112;2023-12-28T04:22:45;95052.00;;;-0.68;100.00
52105;BME280;38103;42.776;23.112;2023-12-28T04:25:11;95028.22;;;-0.83;100.00
52105;BME280;38103;42.776;23.112;2023-12-28T04:27:41;95069.78;;;-0.73;100.00
52105;BME280;38103;42.776;23.112;2023-12-28T04:30:07;95043.81;;;-0.83;100.00
52105;BME280;38103;42.776;23.112;2023-12-28T04:32:32;95030.69;;;-0.91;100.00
52105;BME280;38103;42.776;23.112;2023-12-28T04:34:58;95046.81;;;-0.77;100.00
52105;BME280;38103;42.776;23.112;2023-12-28T04:37:23;95044.91;;;-0.75;100.00
52105;BME280;38103;42.776;23.112;2023-12-28T04:39:49;95044.91;;;-0.75;100.00
52105;BME280;38103;42.776;23.112;2023-12-28T04:42:14;95034.50;;;-0.75;100.00
52105;BME280;38103;42.776;23.112;2023-12-28T04:44:40;95042.16;;;-0.64;100.00
52105;BME280;38103;42.776;23.112;2023-12-28T04:47:06;95023.56;;;-0.69;100.00
52105;BME280;38103;42.776;23.112;2023-12-28T04:49:31;95041.88;;;-0.51;100.00
52105;BME280;38103;42.776;23.112;2023-12-28T04:51:56;95040.25;;;-0.42;100.00
52105;BME280;38103;42.776;23.112;2023-12-28T04:54:22;95037.78;;;-0.33;100.00
52105;BME280;38103;42.776;23.112;2023-12-28T04:56:48;95040.22;;;-0.32;100.00
52105;BME280;38103;42.776;23.112;2023-12-28T04:59:13;95030.94;;;-0.44;100.00
52105;BME280;38103;42.776;23.112;2023-12-28T05:01:45;95043.25;;;-0.37;100.00
52105;BME280;38103;42.776;23.112;2023-12-28T05:04:11;95046.78;;;-0.38;100.00
52105;BME280;38103;42.776;23.112;2023-12-28T05:06:37;95053.47;;;-0.35;100.00
52105;BME280;38103;42.776;23.112;2023-12-28T05:09:03;95050.22;;;-0.37;100.00
52105;BME280;38103;42.776;23.112;2023-12-28T05:11:29;95048.44;;;-0.37;100.00
52105;BME280;38103;42.776;23.112;2023-12-28T05:13:54;95031.38;;;-0.49;100.00
52105;BME280;38103;42.776;23.112;2023-12-28T05:16:20;95047.06;;;-0.41;100.00
52105;BME280;38103;42.776;23.112;2023-12-28T05:18:46;94933.94;;;-1.13;100.00
52105;BME280;38103;42.776;23.112;2023-12-28T05:21:12;95046.53;;;-0.35;100.00
52105;BME280;38103;42.776;23.112;2023-12-28T05:23:37;94990.50;;;-0.67;100.00
52105;BME280;38103;42.776;23.112;2023-12-28T05:26:03;95044.88;;;-0.36;100.00
52105;BME280;38103;42.776;23.112;2023-12-28T05:28:28;95046.78;;;-0.38;100.00
52105;BME280;38103;42.776;23.112;2023-12-28T05:30:54;95046.25;;;-0.51;100.00
52105;BME280;38103;42.776;23.112;2023-12-28T05:33:19;95043.38;;;-0.58;100.00
52105;BME280;38103;42.776;23.112;2023-12-28T05:35:45;95052.00;;;-0.48;100.00
52105;BME280;38103;42.776;23.112;2023-12-28T05:38:10;95055.16;;;-0.44;100.00
52105;BME280;38103;42.776;23.112;2023-12-28T05:40:35;95054.19;;;-0.43;100.00
52105;BME280;38103;42.776;23.112;2023-12-28T05:43:01;95051.97;;;-0.38;100.00
52105;BME280;38103;42.776;23.112;2023-12-28T05:45:26;95051.44;;;-0.31;100.00
52105;BME280;38103;42.776;23.112;2023-12-28T05:47:52;95059.91;;;-0.29;100.00
52105;BME280;38103;42.776;23.112;2023-12-28T05:50:17;95058.00;;;-0.27;100.00
52105;BME280;38103;42.776;23.112;2023-12-28T05:52:42;95051.44;;;-0.31;100.00
52105;BME280;38103;42.776;23.112;2023-12-28T05:55:08;95062.50;;;-0.29;100.00
52105;BME280;38103;42.776;23.112;2023-12-28T05:57:33;95071.13;;;-0.49;100.00
52105;BME280;38103;42.776;23.112;2023-12-28T05:59:59;95064.84;;;-0.56;100.00
52105;BME280;38103;42.776;23.112;2023-12-28T06:02:24;95065.00;;;-0.58;100.00
52105;BME280;38103;42.776;23.112;2023-12-28T06:04:49;95065.00;;;-0.58;100.00
52105;BME280;38103;42.776;23.112;2023-12-28T06:07:15;95074.41;;;-0.57;100.00
52105;BME280;38103;42.776;23.112;2023-12-28T06:09:40;95075.53;;;-0.49;100.00
52105;BME280;38103;42.776;23.112;2023-12-28T06:12:06;95077.03;;;-0.37;100.00
52105;BME280;38103;42.776;23.112;2023-12-28T06:14:31;95073.59;;;-0.27;100.00
52105;BME280;38103;42.776;23.112;2023-12-28T06:16:57;95076.31;;;-0.19;100.00
52105;BME280;38103;42.776;23.112;2023-12-28T06:19:22;95071.94;;;-0.18;100.00
52105;BME280;38103;42.776;23.112;2023-12-28T06:21:50;95075.88;;;-0.04;100.00
52105;BME280;38103;42.776;23.112;2023-12-28T06:24:16;95066.00;;;0.09;100.00
52105;BME280;38103;42.776;23.112;2023-12-28T06:26:42;95067.75;;;0.19;100.00
52105;BME280;38103;42.776;23.112;2023-12-28T06:29:08;95068.97;;;0.25;100.00
52105;BME280;38103;42.776;23.112;2023-12-28T06:31:35;95076.06;;;0.32;100.00
52105;BME280;38103;42.776;23.112;2023-12-28T06:34:04;95083.59;;;0.36;100.00
52105;BME280;38103;42.776;23.112;2023-12-28T06:36:30;95078.63;;;0.42;100.00
52105;BME280;38103;42.776;23.112;2023-12-28T06:38:56;95082.44;;;0.48;100.00
52105;BME280;38103;42.776;23.112;2023-12-28T06:41:21;95052.06;;;0.39;100.00
52105;BME280;38103;42.776;23.112;2023-12-28T06:43:47;95083.69;;;0.72;100.00
52105;BME280;38103;42.776;23.112;2023-12-28T06:46:12;95087.75;;;0.85;100.00
52105;BME280;38103;42.776;23.112;2023-12-28T06:48:38;95071.41;;;0.93;100.00
52105;BME280;38103;42.776;23.112;2023-12-28T06:51:06;95088.41;;;1.15;100.00
52105;BME280;38103;42.776;23.112;2023-12-28T06:53:31;95085.00;;;1.33;100.00
52105;BME280;38103;42.776;23.112;2023-12-28T06:55:56;95063.31;;;1.32;100.00
52105;BME280;38103;42.776;23.112;2023-12-28T06:58:22;95079.84;;;1.60;100.00
52105;BME280;38103;42.776;23.112;2023-12-28T07:00:47;95086.22;;;1.84;100.00
52105;BME280;38103;42.776;23.112;2023-12-28T07:03:13;95073.44;;;1.99;100.00
52105;BME280;38103;42.776;23.112;2023-12-28T07:05:38;95081.34;;;2.34;100.00
52105;BME280;38103;42.776;23.112;2023-12-28T07:08:04;95082.66;;;2.65;100.00
52105;BME280;38103;42.776;23.112;2023-12-28T07:10:29;95053.47;;;2.78;100.00
52105;BME280;38103;42.776;23.112;2023-12-28T07:12:54;95087.41;;;3.21;100.00
52105;BME280;38103;42.776;23.112;2023-12-28T07:15:20;95083.84;;;3.56;100.00
52105;BME280;38103;42.776;23.112;2023-12-28T07:17:45;95088.94;;;3.83;100.00
52105;BME280;38103;42.776;23.112;2023-12-28T07:20:11;95092.69;;;4.05;100.00
52105;BME280;38103;42.776;23.112;2023-12-28T07:22:37;95092.50;;;4.32;100.00
52105;BME280;38103;42.776;23.112;2023-12-28T07:25:06;95093.91;;;4.60;100.00
52105;BME280;38103;42.776;23.112;2023-12-28T07:27:34;95036.28;;;4.60;100.00
52105;BME280;38103;42.776;23.112;2023-12-28T07:30:00;95088.09;;;5.13;100.00
52105;BME280;38103;42.776;23.112;2023-12-28T07:32:26;95090.63;;;5.38;100.00
52105;BME280;38103;42.776;23.112;2023-12-28T07:34:54;95093.31;;;5.53;100.00
52105;BME280;38103;42.776;23.112;2023-12-28T07:37:20;95093.47;;;5.75;100.00
52105;BME280;38103;42.776;23.112;2023-12-28T07:39:46;95090.97;;;5.82;100.00
52105;BME280;38103;42.776;23.112;2023-12-28T07:42:11;95094.88;;;6.10;100.00
52105;BME280;38103;42.776;23.112;2023-12-28T07:44:37;95091.59;;;6.46;100.00
52105;BME280;38103;42.776;23.112;2023-12-28T07:47:02;95093.69;;;6.51;100.00
52105;BME280;38103;42.776;23.112;2023-12-28T07:49:30;95088.16;;;6.46;100.00
52105;BME280;38103;42.776;23.112;2023-12-28T07:51:55;95089.13;;;6.75;100.00
52105;BME280;38103;42.776;23.112;2023-12-28T07:54:21;95095.09;;;6.99;100.00
52105;BME280;38103;42.776;23.112;2023-12-28T07:56:46;95052.00;;;6.48;100.00
52105;BME280;38103;42.776;23.112;2023-12-28T07:59:12;95099.63;;;6.45;100.00
52105;BME280;38103;42.776;23.112;2023-12-28T08:01:37;95100.88;;;6.19;100.00
52105;BME280;38103;42.776;23.112;2023-12-28T08:04:03;95094.00;;;6.18;100.00
52105;BME280;38103;42.776;23.112;2023-12-28T08:06:28;95036.56;;;5.76;100.00
52105;BME280;38103;42.776;23.112;2023-12-28T08:08:57;95089.00;;;6.08;100.00
52105;BME280;38103;42.776;23.112;2023-12-28T08:11:24;95090.41;;;6.34;100.00
52105;BME280;38103;42.776;23.112;2023-12-28T08:13:50;95096.56;;;6.26;100.00
52105;BME280;38103;42.776;23.112;2023-12-28T08:16:15;95084.69;;;6.30;100.00
52105;BME280;38103;42.776;23.112;2023-12-28T08:18:40;95091.31;;;6.26;100.00
52105;BME280;38103;42.776;23.112;2023-12-28T08:21:06;95089.09;;;6.14;100.00
52105;BME280;38103;42.776;23.112;2023-12-28T08:23:31;95034.59;;;5.93;100.00
52105;BME280;38103;42.776;23.112;2023-12-28T08:25:56;95081.16;;;5.99;100.00
52105;BME280;38103;42.776;23.112;2023-12-28T08:28:22;95083.25;;;6.04;100.00
52105;BME280;38103;42.776;23.112;2023-12-28T08:30:48;95087.56;;;5.97;100.00
52105;BME280;38103;42.776;23.112;2023-12-28T08:33:15;95086.50;;;6.06;100.00
52105;BME280;38103;42.776;23.112;2023-12-28T08:35:40;95078.81;;;6.04;100.00
52105;BME280;38103;42.776;23.112;2023-12-28T08:38:05;95065.66;;;5.89;100.00
52105;BME280;38103;42.776;23.112;2023-12-28T08:40:31;95072.44;;;5.84;100.00
52105;BME280;38103;42.776;23.112;2023-12-28T08:42:57;95079.06;;;5.95;100.00
52105;BME280;38103;42.776;23.112;2023-12-28T08:45:22;95072.63;;;6.21;100.00
52105;BME280;38103;42.776;23.112;2023-12-28T08:47:48;95075.09;;;6.53;100.00
52105;BME280;38103;42.776;23.112;2023-12-28T08:50:14;95073.56;;;6.58;100.00
52105;BME280;38103;42.776;23.112;2023-12-28T08:52:39;95062.22;;;6.58;100.00
52105;BME280;38103;42.776;23.112;2023-12-28T08:55:05;95065.69;;;6.58;100.00
52105;BME280;38103;42.776;23.112;2023-12-28T08:57:31;95008.53;;;6.30;100.00
52105;BME280;38103;42.776;23.112;2023-12-28T08:59:57;95068.56;;;6.79;100.00
52105;BME280;38103;42.776;23.112;2023-12-28T09:02:22;95058.38;;;7.06;100.00
52105;BME280;38103;42.776;23.112;2023-12-28T09:04:48;95059.03;;;7.30;100.00
52105;BME280;38103;42.776;23.112;2023-12-28T09:07:14;95052.06;;;7.59;100.00
52105;BME280;38103;42.776;23.112;2023-12-28T09:09:40;95051.03;;;7.82;100.00
52105;BME280;38103;42.776;23.112;2023-12-28T09:12:06;95057.34;;;8.10;100.00
52105;BME280;38103;42.776;23.112;2023-12-28T09:14:31;95048.22;;;8.42;100.00
52105;BME280;38103;42.776;23.112;2023-12-28T09:16:57;95050.03;;;8.70;100.00
52105;BME280;38103;42.776;23.112;2023-12-28T09:19:22;95040.84;;;9.01;100.00
52105;BME280;38103;42.776;23.112;2023-12-28T09:21:48;95017.97;;;9.22;100.00
52105;BME280;38103;42.776;23.112;2023-12-28T09:24:13;95034.47;;;9.52;100.00
52105;BME280;38103;42.776;23.112;2023-12-28T09:26:40;95015.00;;;9.66;100.00
52105;BME280;38103;42.776;23.112;2023-12-28T09:29:06;95023.94;;;9.99;88.31
52105;BME280;38103;42.776;23.112;2023-12-28T09:31:31;95020.69;;;10.04;88.31
52105;BME280;38103;42.776;23.112;2023-12-28T09:33:57;95018.25;;;10.09;86.76
52105;BME280;38103;42.776;23.112;2023-12-28T09:36:22;95020.44;;;10.26;85.67
52105;BME280;38103;42.776;23.112;2023-12-28T09:38:47;95008.41;;;10.64;81.67
52105;BME280;38103;42.776;23.112;2023-12-28T09:41:14;95011.13;;;10.97;78.34
52105;BME280;38103;42.776;23.112;2023-12-28T09:46:25;94996.16;;;12.13;72.92
52105;BME280;38103;42.776;23.112;2023-12-28T09:48:54;94985.72;;;12.56;67.29
52105;BME280;38103;42.776;23.112;2023-12-28T09:51:21;94990.88;;;12.70;67.87
52105;BME280;38103;42.776;23.112;2023-12-28T09:53:46;94983.50;;;12.53;67.46
52105;BME280;38103;42.776;23.112;2023-12-28T09:56:13;94981.81;;;11.95;69.01
52105;BME280;38103;42.776;23.112;2023-12-28T09:58:40;94970.56;;;11.10;73.77
52105;BME280;38103;42.776;23.112;2023-12-28T10:01:06;94964.25;;;10.65;79.55
52105;BME280;38103;42.776;23.112;2023-12-28T10:03:32;94898.56;;;10.02;80.60
52105;BME280;38103;42.776;23.112;2023-12-28T10:05:58;94954.44;;;9.99;85.22
52105;BME280;38103;42.776;23.112;2023-12-28T10:08:23;94946.38;;;9.66;85.47
52105;BME280;38103;42.776;23.112;2023-12-28T10:10:49;94943.72;;;9.32;88.12
52105;BME280;38103;42.776;23.112;2023-12-28T10:13:19;94941.34;;;8.81;93.93
52105;BME280;38103;42.776;23.112;2023-12-28T10:15:45;94855.47;;;7.96;97.25
52105;BME280;38103;42.776;23.112;2023-12-28T10:18:10;94904.63;;;8.24;98.68
52105;BME280;38103;42.776;23.112;2023-12-28T10:20:37;94925.34;;;8.27;98.75
52105;BME280;38103;42.776;23.112;2023-12-28T10:23:03;94892.50;;;7.87;98.63
52105;BME280;38103;42.776;23.112;2023-12-28T10:25:31;94919.59;;;7.81;100.00
52105;BME280;38103;42.776;23.112;2023-12-28T10:27:57;94910.72;;;7.89;100.00
52105;BME280;38103;42.776;23.112;2023-12-28T10:30:22;94871.81;;;7.84;100.00
52105;BME280;38103;42.776;23.112;2023-12-28T10:32:48;94880.50;;;7.78;100.00
52105;BME280;38103;42.776;23.112;2023-12-28T10:35:14;94893.97;;;7.97;100.00
52105;BME280;38103;42.776;23.112;2023-12-28T10:37:41;94905.75;;;8.01;100.00
52105;BME280;38103;42.776;23.112;2023-12-28T10:40:13;94892.72;;;7.92;100.00
52105;BME280;38103;42.776;23.112;2023-12-28T10:42:54;94897.19;;;7.92;100.00
52105;BME280;38103;42.776;23.112;2023-12-28T10:45:22;94900.00;;;7.90;100.00
52105;BME280;38103;42.776;23.112;2023-12-28T10:50:22;94881.63;;;8.53;95.61
52105;BME280;38103;42.776;23.112;2023-12-28T10:52:55;94875.69;;;9.14;89.40
52105;BME280;38103;42.776;23.112;2023-12-28T10:55:40;94871.53;;;10.00;81.17
52105;BME280;38103;42.776;23.112;2023-12-28T10:58:15;94870.34;;;10.55;76.96
52105;BME280;38103;42.776;23.112;2023-12-28T11:00:52;94836.63;;;11.09;74.11
52105;BME280;38103;42.776;23.112;2023-12-28T11:03:23;94800.25;;;11.48;69.88
52105;BME280;38103;42.776;23.112;2023-12-28T11:05:49;94780.25;;;11.90;65.57
52105;BME280;38103;42.776;23.112;2023-12-28T11:08:14;94846.56;;;12.71;63.56
52105;BME280;38103;42.776;23.112;2023-12-28T11:10:42;94852.38;;;12.49;63.48
52105;BME280;38103;42.776;23.112;2023-12-28T11:13:09;94855.03;;;12.49;62.63
52105;BME280;38103;42.776;23.112;2023-12-28T11:15:36;94838.97;;;12.44;64.00
52105;BME280;38103;42.776;23.112;2023-12-28T11:18:03;94837.28;;;12.49;63.43
52105;BME280;38103;42.776;23.112;2023-12-28T11:20:29;94750.47;;;12.07;62.54
52105;BME280;38103;42.776;23.112;2023-12-28T11:22:55;94836.31;;;12.74;62.03
52105;BME280;38103;42.776;23.112;2023-12-28T11:25:22;94823.66;;;12.89;61.42
52105;BME280;38103;42.776;23.112;2023-12-28T11:27:47;94826.16;;;12.83;59.68
52105;BME280;38103;42.776;23.112;2023-12-28T11:30:13;94823.22;;;12.30;61.11
52105;BME280;38103;42.776;23.112;2023-12-28T11:32:41;94821.28;;;12.37;63.14
52105;BME280;38103;42.776;23.112;2023-12-28T11:35:11;94811.31;;;12.21;62.39
52105;BME280;38103;42.776;23.112;2023-12-28T11:37:38;94817.56;;;11.70;64.20
52105;BME280;38103;42.776;23.112;2023-12-28T11:40:12;94766.47;;;10.99;64.77
52105;BME280;38103;42.776;23.112;2023-12-28T11:42:50;94816.16;;;10.97;66.24
52105;BME280;38103;42.776;23.112;2023-12-28T11:45:20;94796.16;;;10.36;69.00
52105;BME280;38103;42.776;23.112;2023-12-28T11:47:46;94804.59;;;10.20;69.76
52105;BME280;38103;42.776;23.112;2023-12-28T11:50:12;94797.16;;;9.96;72.15
52105;BME280;38103;42.776;23.112;2023-12-28T11:52:38;94787.50;;;9.76;73.92
52105;BME280;38103;42.776;23.112;2023-12-28T11:55:03;94748.00;;;9.42;74.39
52105;BME280;38103;42.776;23.112;2023-12-28T11:57:30;94787.19;;;9.45;75.07
52105;BME280;38103;42.776;23.112;2023-12-28T11:59:58;94796.94;;;9.24;75.95
52105;BME280;38103;42.776;23.112;2023-12-28T12:02:24;94788.00;;;9.25;77.75
52105;BME280;38103;42.776;23.112;2023-12-28T12:04:50;94785.56;;;9.31;78.77
52105;BME280;38103;42.776;23.112;2023-12-28T12:07:15;94782.66;;;9.59;76.68
52105;BME280;38103;42.776;23.112;2023-12-28T12:09:42;94773.59;;;10.01;74.24
52105;BME280;38103;42.776;23.112;2023-12-28T12:12:08;94774.53;;;10.46;73.02
52105;BME280;38103;42.776;23.112;2023-12-28T12:14:34;94781.88;;;10.83;71.09
52105;BME280;38103;42.776;23.112;2023-12-28T12:17:00;94782.56;;;11.23;67.87
52105;BME280;38103;42.776;23.112;2023-12-28T12:19:26;94785.09;;;11.56;66.17
52105;BME280;38103;42.776;23.112;2023-12-28T12:21:55;94772.78;;;11.99;64.60
52105;BME280;38103;42.776;23.112;2023-12-28T12:24:21;94776.28;;;12.18;62.67
52105;BME280;38103;42.776;23.112;2023-12-28T12:26:49;94773.78;;;12.36;61.30
52105;BME280;38103;42.776;23.112;2023-12-28T12:29:14;94775.63;;;12.35;61.45
52105;BME280;38103;42.776;23.112;2023-12-28T12:31:40;94775.09;;;12.14;60.62
52105;BME280;38103;42.776;23.112;2023-12-28T12:34:10;94777.75;;;11.95;61.63
52105;BME280;38103;42.776;23.112;2023-12-28T12:36:36;94747.88;;;11.69;61.67
52105;BME280;38103;42.776;23.112;2023-12-28T12:39:03;94751.13;;;11.34;62.54
52105;BME280;38103;42.776;23.112;2023-12-28T12:41:34;94762.28;;;11.36;63.57
52105;BME280;38103;42.776;23.112;2023-12-28T12:44:00;94758.53;;;11.25;64.50
52105;BME280;38103;42.776;23.112;2023-12-28T12:46:26;94771.34;;;11.02;64.96
52105;BME280;38103;42.776;23.112;2023-12-28T12:48:59;94768.63;;;10.83;66.58